createdAt,value
2022-09-14T00:01:40.518Z,11.68
2022-09-14T00:04:12.922Z,11.61
2022-09-14T00:06:42.355Z,11.52
2022-09-14T00:09:19.631Z,11.42
2022-09-14T00:11:49.133Z,11.34
2022-09-14T00:14:18.348Z,11.28
2022-09-14T00:16:47.521Z,11.24
2022-09-14T00:19:22.500Z,11.18
2022-09-14T00:21:53.369Z,11.13
2022-09-14T00:24:23.015Z,11.07
2022-09-14T00:26:51.732Z,11.02
2022-09-14T00:29:20.675Z,10.95
2022-09-14T00:31:48.826Z,10.89
2022-09-14T00:34:17.969Z,10.85
2022-09-14T00:36:50.152Z,10.80
2022-09-14T00:39:20.751Z,10.75
2022-09-14T00:41:49.461Z,10.70
2022-09-14T00:44:17.321Z,10.66
2022-09-14T00:46:51.298Z,10.62
2022-09-14T00:49:34.985Z,10.60
2022-09-14T00:52:09.850Z,10.60
2022-09-14T00:54:52.190Z,10.63
2022-09-14T00:57:21.365Z,10.66
2022-09-14T00:59:52.012Z,10.69
2022-09-14T01:02:23.473Z,10.74
2022-09-14T01:04:52.276Z,10.77
2022-09-14T01:07:26.643Z,10.80
2022-09-14T01:10:13.106Z,10.85
2022-09-14T01:12:59.294Z,10.92
2022-09-14T01:15:32.646Z,11.01
2022-09-14T01:18:16.458Z,11.10
2022-09-14T01:20:55.572Z,11.20
2022-09-14T01:23:47.805Z,11.30
2022-09-14T01:26:16.207Z,11.37
2022-09-14T01:29:06.195Z,11.41
2022-09-14T01:31:53.247Z,11.47
2022-09-14T01:34:21.043Z,11.48
2022-09-14T01:36:55.759Z,11.48
2022-09-14T01:39:24.024Z,11.51
2022-09-14T01:41:54.294Z,11.56
2022-09-14T01:44:27.724Z,11.59
2022-09-14T01:46:59.974Z,11.58
2022-09-14T01:49:33.329Z,11.56
2022-09-14T01:52:09.316Z,11.51
2022-09-14T01:54:49.675Z,11.45
2022-09-14T01:57:21.729Z,11.40
2022-09-14T01:59:52.556Z,11.37
2022-09-14T02:02:31.123Z,11.35
2022-09-14T02:05:15.495Z,11.32
2022-09-14T02:07:43.458Z,11.31
2022-09-14T02:10:13.363Z,11.30
2022-09-14T02:12:41.340Z,11.28
2022-09-14T02:15:11.304Z,11.27
2022-09-14T02:17:40.274Z,11.25
2022-09-14T02:20:14.297Z,11.23
2022-09-14T02:22:42.400Z,11.19
2022-09-14T02:25:10.340Z,11.15
2022-09-14T02:27:38.185Z,11.10
2022-09-14T02:30:06.977Z,11.06
2022-09-14T02:33:01.527Z,11.00
2022-09-14T02:35:44.951Z,10.92
2022-09-14T02:38:18.712Z,10.85
2022-09-14T02:40:58.297Z,10.76
2022-09-14T02:43:47.254Z,10.69
2022-09-14T02:46:18.187Z,10.63
2022-09-14T02:49:04.402Z,10.58
2022-09-14T02:52:09.818Z,10.54
2022-09-14T02:54:46.592Z,10.46
2022-09-14T02:57:14.502Z,10.39
2022-09-14T02:59:43.033Z,10.35
2022-09-14T03:02:11.150Z,10.33
2022-09-14T03:04:39.054Z,10.31
2022-09-14T03:07:06.835Z,10.29
2022-09-14T03:09:34.839Z,10.28
2022-09-14T03:12:03.019Z,10.28
2022-09-14T03:14:30.945Z,10.29
2022-09-14T03:16:58.874Z,10.30
2022-09-14T03:19:29.040Z,10.31
2022-09-14T03:21:56.947Z,10.34
2022-09-14T03:24:24.863Z,10.34
2022-09-14T03:26:52.735Z,10.36
2022-09-14T03:29:20.621Z,10.41
2022-09-14T03:31:48.660Z,10.46
2022-09-14T03:34:16.756Z,10.51
2022-09-14T03:36:44.689Z,10.54
2022-09-14T03:39:12.650Z,10.54
2022-09-14T03:41:40.578Z,10.53
2022-09-14T03:44:10.252Z,10.54
2022-09-14T03:46:38.486Z,10.54
2022-09-14T03:49:06.351Z,10.53
2022-09-14T03:51:34.612Z,10.53
2022-09-14T03:54:02.551Z,10.50
2022-09-14T03:56:31.008Z,10.48
2022-09-14T03:58:58.925Z,10.44
2022-09-14T04:01:27.072Z,10.38
2022-09-14T04:03:55.695Z,10.33
2022-09-14T04:06:23.716Z,10.28
2022-09-14T04:08:51.636Z,10.23
2022-09-14T04:11:24.797Z,10.19
2022-09-14T04:13:53.364Z,10.12
2022-09-14T04:16:22.173Z,10.07
2022-09-14T04:18:50.361Z,10.04
2022-09-14T04:21:20.618Z,10.02
2022-09-14T04:24:13.569Z,10.00
2022-09-14T04:26:37.136Z,9.97
2022-09-14T04:29:05.919Z,9.93
2022-09-14T04:31:34.818Z,9.91
2022-09-14T04:34:03.018Z,9.89
2022-09-14T04:36:31.615Z,9.87
2022-09-14T04:39:02.365Z,9.86
2022-09-14T04:41:31.859Z,9.85
2022-09-14T04:44:00.920Z,9.85
2022-09-14T04:46:32.869Z,9.84
2022-09-14T04:49:01.910Z,9.83
2022-09-14T04:51:31.471Z,9.83
2022-09-14T04:54:01.460Z,9.86
2022-09-14T04:56:33.799Z,9.91
2022-09-14T04:59:04.468Z,9.98
2022-09-14T05:01:39.218Z,10.05
2022-09-14T05:04:08.662Z,10.12
2022-09-14T05:06:39.167Z,10.21
2022-09-14T05:09:15.929Z,10.31
2022-09-14T05:11:45.280Z,10.42
2022-09-14T05:14:15.123Z,10.53
2022-09-14T05:16:44.235Z,10.63
2022-09-14T05:19:18.309Z,10.75
2022-09-14T05:21:47.308Z,10.92
2022-09-14T05:24:18.631Z,11.08
2022-09-14T05:26:47.129Z,11.23
2022-09-14T05:29:18.850Z,11.34
2022-09-14T05:31:47.333Z,11.48
2022-09-14T05:34:17.291Z,11.61
2022-09-14T05:36:45.263Z,11.74
2022-09-14T05:39:13.130Z,11.86
2022-09-14T05:41:41.153Z,11.97
2022-09-14T05:44:09.373Z,12.05
2022-09-14T05:46:37.362Z,12.10
2022-09-14T05:49:05.331Z,12.15
2022-09-14T05:51:33.216Z,12.19
2022-09-14T05:54:01.180Z,12.22
2022-09-14T05:56:31.839Z,12.24
2022-09-14T05:59:00.513Z,12.26
2022-09-14T06:01:32.739Z,12.29
2022-09-14T06:04:02.489Z,12.33
2022-09-14T06:06:31.758Z,12.40
2022-09-14T06:09:00.212Z,12.47
2022-09-14T06:11:31.098Z,12.47
2022-09-14T06:13:59.435Z,12.47
2022-09-14T06:16:28.230Z,12.53
2022-09-14T06:18:58.574Z,12.62
2022-09-14T06:21:32.507Z,12.72
2022-09-14T06:24:01.482Z,12.83
2022-09-14T06:26:31.333Z,12.94
2022-09-14T06:28:59.352Z,13.05
2022-09-14T06:31:27.225Z,13.15
2022-09-14T06:33:55.128Z,13.24
2022-09-14T06:36:25.355Z,13.30
2022-09-14T06:38:54.777Z,13.33
2022-09-14T06:41:29.063Z,13.33
2022-09-14T06:43:58.850Z,13.36
2022-09-14T06:46:29.917Z,13.39
2022-09-14T06:48:59.563Z,13.44
2022-09-14T06:51:34.765Z,13.51
2022-09-14T06:54:03.989Z,13.60
2022-09-14T06:56:34.558Z,13.70
2022-09-14T06:59:04.339Z,13.80
2022-09-14T07:01:32.347Z,13.93
2022-09-14T07:04:01.813Z,14.06
2022-09-14T07:06:33.382Z,14.19
2022-09-14T07:09:03.844Z,14.32
2022-09-14T07:11:32.596Z,14.47
2022-09-14T07:14:01.994Z,14.64
2022-09-14T07:16:31.690Z,14.82
2022-09-14T07:19:04.582Z,14.97
2022-09-14T07:21:34.192Z,15.13
2022-09-14T07:24:03.359Z,15.32
2022-09-14T07:26:35.352Z,15.44
2022-09-14T07:29:05.404Z,15.56
2022-09-14T07:31:36.479Z,15.68
2022-09-14T07:34:05.949Z,15.83
2022-09-14T07:36:35.824Z,15.92
2022-09-14T07:39:07.254Z,16.00
2022-09-14T07:41:36.433Z,16.09
2022-09-14T07:44:07.379Z,16.19
2022-09-14T07:46:41.090Z,16.31
2022-09-14T07:49:10.322Z,16.37
2022-09-14T07:51:39.132Z,16.41
2022-09-14T07:54:12.387Z,16.49
2022-09-14T07:56:41.013Z,16.59
2022-09-14T08:02:00.890Z,16.78
2022-09-14T08:04:31.305Z,16.83
2022-09-14T08:07:02.067Z,16.89
2022-09-14T08:09:31.381Z,16.96
2022-09-14T08:11:59.483Z,16.98
2022-09-14T08:14:27.388Z,16.99
2022-09-14T08:16:55.271Z,17.09
2022-09-14T08:19:23.148Z,17.27
2022-09-14T08:21:51.353Z,17.37
2022-09-14T08:24:21.368Z,17.46
2022-09-14T08:26:49.670Z,17.58
2022-09-14T08:29:18.712Z,17.75
2022-09-14T08:31:47.944Z,17.86
2022-09-14T08:34:17.371Z,17.87
2022-09-14T08:36:46.859Z,17.89
2022-09-14T08:39:16.550Z,18.00
2022-09-14T08:42:00.326Z,18.14
2022-09-14T08:44:42.107Z,18.29
2022-09-14T08:47:19.336Z,18.40
2022-09-14T08:50:20.419Z,18.49
2022-09-14T08:52:53.116Z,18.60
2022-09-14T08:55:23.889Z,18.71
2022-09-14T08:58:43.957Z,18.83
2022-09-14T09:01:38.538Z,18.95
2022-09-14T09:04:24.516Z,19.02
2022-09-14T09:07:05.759Z,19.13
2022-09-14T09:09:43.411Z,19.31
2022-09-14T09:12:33.837Z,19.49
2022-09-14T09:15:18.899Z,19.69
2022-09-14T09:17:51.840Z,19.93
2022-09-14T09:20:30.451Z,20.12
2022-09-14T09:23:20.844Z,20.24
2022-09-14T09:26:06.986Z,20.40
2022-09-14T09:28:39.564Z,20.58
2022-09-14T09:31:24.916Z,20.68
2022-09-14T09:34:26.227Z,20.73
2022-09-14T09:36:56.101Z,20.79
2022-09-14T09:39:24.399Z,20.80
2022-09-14T09:42:03.203Z,20.77
2022-09-14T09:45:03.532Z,20.79
2022-09-14T09:47:38.827Z,20.92
2022-09-14T09:50:18.362Z,20.98
2022-09-14T09:52:52.157Z,20.97
2022-09-14T09:55:22.138Z,20.96
2022-09-14T09:57:50.048Z,21.06
2022-09-14T10:00:27.222Z,21.19
2022-09-14T10:02:55.821Z,21.30
2022-09-14T10:05:25.717Z,21.39
2022-09-14T10:07:57.953Z,21.45
2022-09-14T10:10:35.239Z,21.55
2022-09-14T10:13:05.172Z,21.62
2022-09-14T10:15:35.013Z,21.70
2022-09-14T10:18:18.536Z,21.74
2022-09-14T10:20:53.016Z,21.82
2022-09-14T10:23:20.807Z,21.87
2022-09-14T10:25:52.041Z,21.90
2022-09-14T10:28:27.298Z,21.89
2022-09-14T10:31:01.426Z,21.84
2022-09-14T10:33:30.345Z,21.76
2022-09-14T10:36:23.634Z,21.63
2022-09-14T10:39:01.159Z,21.51
2022-09-14T10:41:32.359Z,21.43
2022-09-14T10:44:29.114Z,21.37
2022-09-14T10:47:15.762Z,21.37
2022-09-14T10:49:48.164Z,21.34
2022-09-14T10:52:16.642Z,21.28
2022-09-14T10:54:50.383Z,21.20
2022-09-14T10:57:44.147Z,21.10
2022-09-14T11:00:22.447Z,21.02
2022-09-14T11:03:12.144Z,20.96
2022-09-14T11:05:54.113Z,20.90
2022-09-14T11:08:22.269Z,20.83
2022-09-14T11:11:09.372Z,20.74
2022-09-14T11:14:11.019Z,20.67
2022-09-14T11:16:59.971Z,20.64
2022-09-14T11:19:33.974Z,20.59
2022-09-14T11:22:43.049Z,20.53
2022-09-14T11:25:16.780Z,20.51
2022-09-14T11:27:48.954Z,20.52
2022-09-14T11:30:20.680Z,20.53
2022-09-14T11:32:59.168Z,20.56
2022-09-14T11:35:37.908Z,20.63
2022-09-14T11:38:08.802Z,20.74
2022-09-14T11:40:49.694Z,20.82
2022-09-14T11:43:44.085Z,20.88
2022-09-14T11:47:00.824Z,20.90
2022-09-14T11:49:42.980Z,20.89
2022-09-14T11:52:21.091Z,20.92
2022-09-14T11:54:50.658Z,20.97
2022-09-14T11:57:33.378Z,20.96
2022-09-14T12:00:10.516Z,20.93
2022-09-14T12:02:39.448Z,20.88
2022-09-14T12:05:07.333Z,20.77
2022-09-14T12:07:46.991Z,20.63
2022-09-14T12:10:15.209Z,20.47
2022-09-14T12:13:05.997Z,20.34
2022-09-14T12:15:41.205Z,20.25
2022-09-14T12:18:10.105Z,20.16
2022-09-14T12:20:38.428Z,20.08
2022-09-14T12:23:37.385Z,20.01
2022-09-14T12:26:11.557Z,19.93
2022-09-14T12:28:41.007Z,19.91
2022-09-14T12:31:38.493Z,19.92
2022-09-14T12:34:32.011Z,19.91
2022-09-14T12:37:20.438Z,19.87
2022-09-14T12:40:24.405Z,19.78
2022-09-14T12:42:52.459Z,19.70
2022-09-14T12:45:50.693Z,19.65
2022-09-14T12:48:49.557Z,19.60
2022-09-14T12:51:31.369Z,19.56
2022-09-14T12:54:08.493Z,19.51
2022-09-14T12:57:17.171Z,19.46
2022-09-14T12:59:53.789Z,19.42
2022-09-14T13:02:49.508Z,19.38
2022-09-14T13:05:22.566Z,19.38
2022-09-14T13:07:51.938Z,19.37
2022-09-14T13:10:29.572Z,19.36
2022-09-14T13:12:59.476Z,19.32
2022-09-14T13:15:37.559Z,19.27
2022-09-14T13:18:24.879Z,19.21
2022-09-14T13:20:55.686Z,19.13
2022-09-14T13:23:29.188Z,19.07
2022-09-14T13:25:58.603Z,19.00
2022-09-14T13:28:30.039Z,18.96
2022-09-14T13:31:01.447Z,18.96
2022-09-14T13:33:30.397Z,18.97
2022-09-14T13:36:01.735Z,18.98
2022-09-14T13:38:32.604Z,19.00
2022-09-14T13:41:10.766Z,19.05
2022-09-14T13:43:40.794Z,19.09
2022-09-14T13:46:11.627Z,19.14
2022-09-14T13:48:41.704Z,19.20
2022-09-14T13:51:12.921Z,19.23
2022-09-14T13:53:49.342Z,19.24
2022-09-14T13:56:23.215Z,19.28
2022-09-14T13:59:21.663Z,19.36
2022-09-14T14:01:53.420Z,19.47
2022-09-14T14:04:21.338Z,19.58
2022-09-14T14:07:01.774Z,19.67
2022-09-14T14:09:54.024Z,19.70
2022-09-14T14:12:31.579Z,19.71
2022-09-14T14:15:27.003Z,19.73
2022-09-14T14:17:55.117Z,19.76
2022-09-14T14:20:38.970Z,19.77
2022-09-14T14:23:06.756Z,19.77
2022-09-14T14:25:54.713Z,19.76
2022-09-14T14:28:28.188Z,19.74
2022-09-14T14:30:59.191Z,19.74
2022-09-14T14:33:27.352Z,19.74
2022-09-14T14:35:56.976Z,19.73
2022-09-14T14:38:25.699Z,19.72
2022-09-14T14:40:55.750Z,19.71
2022-09-14T14:43:26.412Z,19.70
2022-09-14T14:45:57.456Z,19.70
2022-09-14T14:48:26.249Z,19.67
2022-09-14T14:50:55.749Z,19.66
2022-09-14T14:53:26.682Z,19.66
2022-09-14T14:55:54.584Z,19.63
2022-09-14T14:58:23.698Z,19.60
2022-09-14T15:00:52.292Z,19.56
2022-09-14T15:03:20.306Z,19.50
2022-09-14T15:05:49.206Z,19.46
2022-09-14T15:08:20.148Z,19.43
2022-09-14T15:10:49.704Z,19.38
2022-09-14T15:13:17.579Z,19.34
2022-09-14T15:15:45.728Z,19.29
2022-09-14T15:18:13.606Z,19.22
2022-09-14T15:20:41.473Z,19.17
2022-09-14T15:23:12.056Z,19.11
2022-09-14T15:25:40.279Z,19.03
2022-09-14T15:28:08.205Z,18.98
2022-09-14T15:30:36.114Z,18.94
2022-09-14T15:33:04.081Z,18.90
2022-09-14T15:35:32.015Z,18.84
2022-09-14T15:37:59.869Z,18.75
2022-09-14T15:40:27.791Z,18.67
2022-09-14T15:42:55.871Z,18.61
2022-09-14T15:45:23.944Z,18.57
2022-09-14T15:47:52.132Z,18.54
2022-09-14T15:50:20.044Z,18.52
2022-09-14T15:52:47.965Z,18.49
2022-09-14T15:55:16.159Z,18.44
2022-09-14T15:57:44.248Z,18.42
2022-09-14T16:00:14.109Z,18.40
2022-09-14T16:02:43.647Z,18.37
2022-09-14T16:05:12.948Z,18.36
2022-09-14T16:07:40.871Z,18.33
2022-09-14T16:10:09.611Z,18.30
2022-09-14T16:12:37.586Z,18.27
2022-09-14T16:15:06.063Z,18.24
2022-09-14T16:17:33.895Z,18.22
2022-09-14T16:20:03.016Z,18.21
2022-09-14T16:22:32.431Z,18.20
2022-09-14T16:25:00.299Z,18.18
2022-09-14T16:27:28.325Z,18.16
2022-09-14T16:29:56.181Z,18.15
2022-09-14T16:32:24.143Z,18.15
2022-09-14T16:34:52.018Z,18.12
2022-09-14T16:37:20.041Z,18.12
2022-09-14T16:39:49.264Z,18.11
2022-09-14T16:42:17.218Z,18.10
2022-09-14T16:44:45.531Z,18.09
2022-09-14T16:47:16.122Z,18.08
2022-09-14T16:49:45.536Z,18.09
2022-09-14T16:52:13.390Z,18.08
2022-09-14T16:54:41.331Z,18.09
2022-09-14T16:57:09.448Z,18.09
2022-09-14T16:59:37.421Z,18.10
2022-09-14T17:02:06.892Z,18.12
2022-09-14T17:04:35.510Z,18.12
2022-09-14T17:07:03.519Z,18.12
2022-09-14T17:09:32.918Z,18.09
2022-09-14T17:12:00.919Z,18.05
2022-09-14T17:14:31.918Z,18.00
2022-09-14T17:17:00.757Z,17.95
2022-09-14T17:19:28.902Z,17.93
2022-09-14T17:21:59.113Z,17.90
2022-09-14T17:24:26.963Z,17.88
2022-09-14T17:26:55.234Z,17.87
2022-09-14T17:29:23.222Z,17.86
2022-09-14T17:31:51.262Z,17.85
2022-09-14T17:34:19.257Z,17.83
2022-09-14T17:36:47.627Z,17.81
2022-09-14T17:39:15.771Z,17.77
2022-09-14T17:41:44.366Z,17.72
2022-09-14T17:44:14.631Z,17.67
2022-09-14T17:46:52.961Z,17.63
2022-09-14T17:49:23.125Z,17.60
2022-09-14T17:51:52.101Z,17.58
2022-09-14T17:54:20.461Z,17.57
2022-09-14T17:56:48.934Z,17.55
2022-09-14T17:59:20.369Z,17.54
2022-09-14T18:01:49.986Z,17.53
2022-09-14T18:04:19.811Z,17.53
2022-09-14T18:06:50.066Z,17.52
2022-09-14T18:09:21.193Z,17.53
2022-09-14T18:11:50.631Z,17.53
2022-09-14T18:14:18.727Z,17.53
2022-09-14T18:16:46.963Z,17.52
2022-09-14T18:19:15.932Z,17.52
2022-09-14T18:21:45.870Z,17.51
2022-09-14T18:24:16.009Z,17.51
2022-09-14T18:26:46.446Z,17.52
2022-09-14T18:29:17.869Z,17.53
2022-09-14T18:31:45.851Z,17.54
2022-09-14T18:34:14.019Z,17.54
2022-09-14T18:36:41.968Z,17.56
2022-09-14T18:39:11.483Z,17.58
2022-09-14T18:41:39.565Z,17.58
2022-09-14T18:44:07.501Z,17.60
2022-09-14T18:46:37.790Z,17.59
2022-09-14T18:49:05.681Z,17.59
2022-09-14T18:51:33.508Z,17.58
2022-09-14T18:54:05.612Z,17.56
2022-09-14T18:56:35.676Z,17.55
2022-09-14T18:59:05.858Z,17.57
2022-09-14T19:01:35.221Z,17.59
2022-09-14T19:04:05.195Z,17.61
2022-09-14T19:06:34.911Z,17.64
2022-09-14T19:09:04.753Z,17.65
2022-09-14T19:11:33.027Z,17.65
2022-09-14T19:14:05.111Z,17.66
2022-09-14T19:16:33.697Z,17.65
2022-09-14T19:19:01.729Z,17.64
2022-09-14T19:21:31.472Z,17.65
2022-09-14T19:24:03.067Z,17.66
2022-09-14T19:26:33.968Z,17.69
2022-09-14T19:29:03.701Z,17.72
2022-09-14T19:31:31.637Z,17.74
2022-09-14T19:34:02.166Z,17.75
2022-09-14T19:36:33.697Z,17.77
2022-09-14T19:39:03.002Z,17.84
2022-09-14T19:41:33.171Z,17.91
2022-09-14T19:44:02.699Z,17.94
2022-09-14T19:46:33.639Z,17.98
2022-09-14T19:49:02.056Z,17.99
2022-09-14T19:51:30.811Z,17.95
2022-09-14T19:54:00.667Z,17.90
2022-09-14T19:56:32.484Z,17.83
2022-09-14T19:59:02.989Z,17.78
2022-09-14T20:01:32.819Z,17.75
2022-09-14T20:04:01.730Z,17.74
2022-09-14T20:06:42.627Z,17.74
2022-09-14T20:09:16.757Z,17.76
2022-09-14T20:11:46.567Z,17.76
2022-09-14T20:14:17.343Z,17.72
2022-09-14T20:16:48.605Z,17.70
2022-09-14T20:19:19.668Z,17.70
2022-09-14T20:21:49.612Z,17.69
2022-09-14T20:24:28.848Z,17.68
2022-09-14T20:26:59.698Z,17.62
2022-09-14T20:29:30.859Z,17.53
2022-09-14T20:31:59.339Z,17.48
2022-09-14T20:34:27.369Z,17.41
2022-09-14T20:36:56.388Z,17.33
2022-09-14T20:39:24.601Z,17.23
2022-09-14T20:41:53.235Z,17.14
2022-09-14T20:44:22.372Z,17.07
2022-09-14T20:46:51.447Z,17.03
2022-09-14T20:49:22.136Z,17.00
2022-09-14T20:51:52.869Z,16.96
2022-09-14T20:54:21.991Z,16.91
2022-09-14T20:56:50.395Z,16.87
2022-09-14T20:59:19.691Z,16.84
2022-09-14T21:01:49.783Z,16.81
2022-09-14T21:04:21.067Z,16.77
2022-09-14T21:06:52.677Z,16.74
2022-09-14T21:09:24.430Z,16.74
2022-09-14T21:11:53.791Z,16.73
2022-09-14T21:14:22.629Z,16.73
2022-09-14T21:16:55.133Z,16.73
2022-09-14T21:19:27.474Z,16.71
2022-09-14T21:21:56.571Z,16.70
2022-09-14T21:24:25.258Z,16.69
2022-09-14T21:26:56.536Z,16.66
2022-09-14T21:29:24.770Z,16.66
2022-09-14T21:31:52.964Z,16.62
2022-09-14T21:34:21.599Z,16.56
2022-09-14T21:36:51.340Z,16.50
2022-09-14T21:39:24.087Z,16.43
2022-09-14T21:41:58.872Z,16.39
2022-09-14T21:44:30.043Z,16.36
2022-09-14T21:46:58.021Z,16.31
2022-09-14T21:49:26.076Z,16.25
2022-09-14T21:51:55.059Z,16.23
2022-09-14T21:54:23.369Z,16.20
2022-09-14T21:56:53.027Z,16.18
2022-09-14T21:59:22.736Z,16.16
2022-09-14T22:01:51.604Z,16.13
2022-09-14T22:04:22.729Z,16.09
2022-09-14T22:06:51.941Z,16.03
2022-09-14T22:09:21.919Z,15.96
2022-09-14T22:11:49.889Z,15.89
2022-09-14T22:14:20.792Z,15.82
2022-09-14T22:16:49.434Z,15.75
2022-09-14T22:19:22.091Z,15.70
2022-09-14T22:21:51.083Z,15.62
2022-09-14T22:24:26.013Z,15.56
2022-09-14T22:26:54.887Z,15.51
2022-09-14T22:29:23.811Z,15.45
2022-09-14T22:31:52.671Z,15.39
2022-09-14T22:34:24.704Z,15.32
2022-09-14T22:36:52.909Z,15.26
2022-09-14T22:39:21.018Z,15.22
2022-09-14T22:41:49.107Z,15.18
2022-09-14T22:44:17.148Z,15.15
2022-09-14T22:46:46.308Z,15.13
2022-09-14T22:49:14.503Z,15.12
2022-09-14T22:51:42.749Z,15.12
2022-09-14T22:54:10.925Z,15.11
2022-09-14T22:56:39.904Z,15.09
2022-09-14T22:59:10.178Z,15.09
2022-09-14T23:01:40.723Z,15.09
2022-09-14T23:04:11.891Z,15.11
2022-09-14T23:06:47.874Z,15.16
2022-09-14T23:09:19.361Z,15.18
2022-09-14T23:11:48.238Z,15.21
2022-09-14T23:14:16.979Z,15.25
2022-09-14T23:16:45.475Z,15.28
2022-09-14T23:19:16.588Z,15.32
2022-09-14T23:21:45.533Z,15.38
2022-09-14T23:24:13.857Z,15.39
2022-09-14T23:26:42.546Z,15.42
2022-09-14T23:29:15.543Z,15.45
2022-09-14T23:31:44.127Z,15.45
2022-09-14T23:34:12.761Z,15.47
2022-09-14T23:36:40.913Z,15.48
2022-09-14T23:39:10.154Z,15.50
2022-09-14T23:41:39.410Z,15.52
2022-09-14T23:44:09.896Z,15.53
2022-09-14T23:46:37.939Z,15.53
2022-09-14T23:49:06.099Z,15.50
2022-09-14T23:51:34.498Z,15.48
2022-09-14T23:54:02.446Z,15.44
2022-09-14T23:56:30.692Z,15.39
2022-09-14T23:58:58.643Z,15.35
